Impacts TAF Board
For situational awareness. Not to be used for flight planning purposes.
IDs:

KBOS - Boston/Logan Intl, MA, US

Issued at 1127 UTC 07 Jul 2020
Updated at 1347 UTC 07 Jul 2020
Potential Impact None Slight Moderate High
Time1254Z 07/14Z 07/15Z 07/16Z 07/17Z 07/18Z 07/19Z 07/20Z 07/21Z 07/22Z 07/23Z 08/00Z 08/01Z 08/02Z>>
Type OBS PRVL PRVL PRVL PRVL PRVL PRVL PRVL PRVL PRVL PRVL PRVL PRVL PRVL
VIS 10 >6 >6 >6 >6 >6 >6 >6 >6 >6 >6 >6 >6 >6
CIG 130 60 60 60 60 -- -- -- -- -- -- -- -- --
Cover BKN BKN BKN BKN BKN SCT SCT SCT SCT SCT SCT SCT SCT SCT
FltCat VFR VFR VFR VFR VFR VFR VFR VFR VFR VFR VFR VFR VFR VFR
WX -- -- -- -- -- -- -- -- -- -- -- -- -- --
WDir 130 130 130 130 130 130 130 130 130 130 130 130 130 130
WSpd 7 8 8 8 8 12 12 12 13 13 13 13 13 13
WGst -- -- -- -- -- 18 18 18 -- -- -- -- -- --
Raw TAF
KBOS 071127Z 0712/0818 13008KT P6SM BKN060
  FM071800 13012G18KT P6SM SCT200
  FM072100 13013KT P6SM SCT200
  FM080600 18008KT P6SM OVC020
  FM080800 18008KT P6SM OVC008
  FM081400 20010G18KT P6SM BKN025
  FM081700 21012G21KT P6SM BKN040


Raw METAR
KBOS 071254Z 13007KT 10SM FEW007 SCT080 BKN130 BKN250 19/16 A3019 RMK AO2 SLP222 T01890161 $
KBOS 071154Z 13006KT 10SM FEW008 SCT085 BKN250 19/17 A3019 RMK AO2 SLP222 T01890167 10189 20172 50006 $
KBOS 071124Z 14008KT 10SM SCT008 BKN070 BKN250 18/16 A3019 RMK AO2 T01780161 $
KBOS 071107Z 13007KT 10SM BKN007 BKN070 OVC250 17/16 A3019 RMK AO2 T01720161 $
KBOS 071054Z 13006KT 10SM SCT007 BKN065 BKN250 17/16 A3019 RMK AO2 SLP223 T01720161 $
KBOS 071040Z 13007KT 10SM FEW007 BKN070 BKN250 18/16 A3019 RMK AO2 T01780161 $

METAR Board
Radar Display
Forecast Discussion
For situational awareness. Not to be used for flight planning purposes.